createdAt,value
2023-05-21T00:01:37.000Z,0
2023-05-21T00:02:27.512Z,0
2023-05-21T00:03:43.000Z,0
2023-05-21T00:04:41.900Z,0
2023-05-21T00:06:16.000Z,0
2023-05-21T00:07:32.288Z,0
2023-05-21T00:08:30.482Z,0
2023-05-21T00:10:04.000Z,0
2023-05-21T00:11:20.870Z,0
2023-05-21T00:12:19.064Z,0
2023-05-21T00:13:53.259Z,0
2023-05-21T00:15:09.442Z,0
2023-05-21T00:16:25.000Z,0
2023-05-21T00:17:41.823Z,0
2023-05-21T00:18:58.036Z,0
2023-05-21T00:20:14.000Z,0
2023-05-21T00:21:30.424Z,0
2023-05-21T00:22:46.000Z,0
2023-05-21T00:24:02.000Z,0
2023-05-21T00:25:01.008Z,0
2023-05-21T00:26:35.000Z,0
2023-05-21T00:27:51.390Z,0
2023-05-21T00:29:07.000Z,0
2023-05-21T00:30:05.785Z,0
2023-05-21T00:31:39.000Z,0
2023-05-21T00:32:55.187Z,0
2023-05-21T00:34:11.382Z,0
2023-05-21T00:35:27.000Z,0
2023-05-21T00:36:43.771Z,0
2023-05-21T00:37:59.000Z,0
2023-05-21T00:39:16.000Z,0
2023-05-21T00:40:32.341Z,0
2023-05-21T00:41:48.000Z,0
2023-05-21T00:42:46.745Z,0
2023-05-21T00:44:20.000Z,0
2023-05-21T00:45:37.134Z,0
2023-05-21T00:46:53.000Z,0
2023-05-21T00:48:09.505Z,0
2023-05-21T00:49:25.000Z,0
2023-05-21T00:50:41.000Z,0
2023-05-21T00:51:58.105Z,0
2023-05-21T00:53:14.302Z,0
2023-05-21T00:54:30.000Z,0
2023-05-21T00:55:28.691Z,0
2023-05-21T00:57:02.000Z,0
2023-05-21T00:58:19.000Z,0
2023-05-21T00:59:35.000Z,0
2023-05-21T01:00:51.000Z,0
2023-05-21T01:02:07.000Z,0
2023-05-21T01:03:05.859Z,0
2023-05-21T01:04:40.000Z,0
2023-05-21T01:05:56.243Z,0
2023-05-21T01:07:12.555Z,0
2023-05-21T01:08:10.759Z,0
2023-05-21T01:09:44.000Z,0
2023-05-21T01:11:01.148Z,0
2023-05-21T01:12:17.343Z,0
2023-05-21T01:13:15.538Z,0
2023-05-21T01:14:49.733Z,0
2023-05-21T01:15:47.927Z,0
2023-05-21T01:17:22.000Z,0
2023-05-21T01:18:38.000Z,0
2023-05-21T01:19:54.512Z,0
2023-05-21T01:20:52.706Z,0
2023-05-21T01:22:26.000Z,0
2023-05-21T01:23:43.000Z,0
2023-05-21T01:24:59.000Z,0
2023-05-21T01:25:57.485Z,0
2023-05-21T01:27:31.680Z,0
2023-05-21T01:28:47.000Z,0
2023-05-21T01:30:04.069Z,0
2023-05-21T01:31:20.254Z,0
2023-05-21T01:32:36.000Z,0
2023-05-21T01:33:33.666Z,0
2023-05-21T01:35:07.000Z,0
2023-05-21T01:36:24.000Z,0
2023-05-21T01:37:40.251Z,0
2023-05-21T01:38:38.445Z,0
2023-05-21T01:40:12.000Z,0
2023-05-21T01:41:10.835Z,0
2023-05-21T01:42:45.000Z,0
2023-05-21T01:44:01.224Z,0
2023-05-21T01:45:17.000Z,0
2023-05-21T01:46:15.614Z,0
2023-05-21T01:47:49.809Z,0
2023-05-21T01:49:06.003Z,0
2023-05-21T01:50:22.198Z,0
2023-05-21T01:51:38.384Z,0
2023-05-21T01:52:54.588Z,0
2023-05-21T01:54:10.782Z,0
2023-05-21T01:55:26.000Z,0
2023-05-21T01:56:43.172Z,0
2023-05-21T01:57:59.000Z,0
2023-05-21T01:59:15.542Z,0
2023-05-21T02:00:31.756Z,0
2023-05-21T02:01:47.950Z,0
2023-05-21T02:03:04.000Z,0
2023-05-21T02:04:20.340Z,0
2023-05-21T02:05:36.000Z,0
2023-05-21T02:06:34.729Z,0
2023-05-21T02:08:08.000Z,0
2023-05-21T02:09:25.119Z,0
2023-05-21T02:10:41.000Z,0
2023-05-21T02:11:57.495Z,0
2023-05-21T02:13:13.000Z,0
2023-05-21T02:14:29.897Z,0
2023-05-21T02:15:46.000Z,0
2023-05-21T02:17:28.000Z,0
2023-05-21T02:18:00.482Z,0
2023-05-21T02:19:15.699Z,0
2023-05-21T02:20:49.895Z,0
2023-05-21T02:22:06.084Z,0
2023-05-21T02:23:22.284Z,0
2023-05-21T02:24:38.000Z,0
2023-05-21T02:25:36.673Z,4
2023-05-21T02:27:10.868Z,4
2023-05-21T02:28:27.000Z,4
2023-05-21T02:29:43.000Z,0
2023-05-21T02:30:59.452Z,4
2023-05-21T02:31:57.647Z,4
2023-05-21T02:33:58.000Z,4
2023-05-21T02:34:48.036Z,4
2023-05-21T02:36:04.000Z,4
2023-05-21T02:37:20.426Z,4
2023-05-21T02:38:36.621Z,8
2023-05-21T02:39:52.000Z,8
2023-05-21T02:41:09.000Z,12
2023-05-21T02:42:07.205Z,12
2023-05-21T02:43:41.400Z,12
2023-05-21T02:44:39.594Z,16
2023-05-21T02:46:13.789Z,16
2023-05-21T02:47:29.979Z,20
2023-05-21T02:49:12.000Z,20
2023-05-21T02:50:02.361Z,24
2023-05-21T02:51:18.000Z,32
2023-05-21T02:52:34.762Z,32
2023-05-21T02:53:50.941Z,40
2023-05-21T02:55:07.143Z,40
2023-05-21T02:56:23.000Z,48
2023-05-21T02:57:39.000Z,52
2023-05-21T02:58:55.736Z,60
2023-05-21T03:00:11.923Z,64
2023-05-21T03:01:28.000Z,72
2023-05-21T03:02:26.320Z,76
2023-05-21T03:04:00.000Z,84
2023-05-21T03:05:16.000Z,92
2023-05-21T03:06:32.000Z,104
2023-05-21T03:07:31.213Z,112
2023-05-21T03:09:31.000Z,124
2023-05-21T03:10:20.000Z,136
2023-05-21T03:11:36.925Z,148
2023-05-21T03:12:53.120Z,164
2023-05-21T03:14:09.302Z,176
2023-05-21T03:15:25.510Z,188
2023-05-21T03:16:23.704Z,204
2023-05-21T03:17:57.899Z,220
2023-05-21T03:19:14.093Z,236
2023-05-21T03:20:30.000Z,256
2023-05-21T03:21:46.483Z,272
2023-05-21T03:23:02.000Z,292
2023-05-21T03:23:59.885Z,312
2023-05-21T03:25:34.000Z,332
2023-05-21T03:26:50.272Z,356
2023-05-21T03:28:06.000Z,376
2023-05-21T03:29:04.664Z,404
2023-05-21T03:30:38.000Z,424
2023-05-21T03:31:55.054Z,456
2023-05-21T03:33:11.000Z,480
2023-05-21T03:34:09.443Z,508
2023-05-21T03:35:43.620Z,536
2023-05-21T03:36:59.832Z,560
2023-05-21T03:38:16.000Z,588
2023-05-21T03:39:32.217Z,616
2023-05-21T03:40:48.000Z,652
2023-05-21T03:41:46.611Z,684
2023-05-21T03:43:20.954Z,716
2023-05-21T03:44:37.000Z,752
2023-05-21T03:45:35.344Z,784
2023-05-21T03:47:09.000Z,816
2023-05-21T03:48:25.733Z,852
2023-05-21T03:50:08.000Z,876
2023-05-21T03:50:58.123Z,904
2023-05-21T03:52:14.317Z,932
2023-05-21T03:53:29.000Z,956
2023-05-21T03:54:27.722Z,984
2023-05-21T03:56:01.000Z,1016
2023-05-21T03:57:18.000Z,1040
2023-05-21T03:58:34.307Z,1064
2023-05-21T03:59:32.501Z,1096
2023-05-21T04:01:06.696Z,1116
2023-05-21T04:02:04.891Z,1156
2023-05-21T04:03:39.000Z,1196
2023-05-21T04:04:37.280Z,1232
2023-05-21T04:06:11.462Z,1272
2023-05-21T04:07:09.670Z,1336
2023-05-21T04:08:43.865Z,1432
2023-05-21T04:09:59.088Z,1524
2023-05-21T04:11:15.000Z,1584
2023-05-21T04:12:31.000Z,1644
2023-05-21T04:13:47.660Z,1680
2023-05-21T04:15:30.000Z,1744
2023-05-21T04:16:20.062Z,1792
2023-05-21T04:17:35.263Z,1812
2023-05-21T04:18:51.465Z,1816
2023-05-21T04:19:49.659Z,1856
2023-05-21T04:21:23.000Z,1936
2023-05-21T04:22:40.049Z,2020
2023-05-21T04:23:56.000Z,2084
2023-05-21T04:25:12.439Z,2136
2023-05-21T04:26:28.635Z,2152
2023-05-21T04:27:44.829Z,2176
2023-05-21T04:29:01.013Z,2276
2023-05-21T04:30:17.209Z,2320
2023-05-21T04:31:33.000Z,2336
2023-05-21T04:32:31.608Z,2376
2023-05-21T04:34:05.000Z,2464
2023-05-21T04:35:22.000Z,2492
2023-05-21T04:36:38.194Z,2532
2023-05-21T04:37:54.000Z,2600
2023-05-21T04:39:36.000Z,2636
2023-05-21T04:40:08.778Z,2632
2023-05-21T04:41:42.000Z,2604
2023-05-21T04:42:59.168Z,2732
2023-05-21T04:44:15.000Z,2824
2023-05-21T04:45:13.558Z,2860
2023-05-21T04:46:47.753Z,2896
2023-05-21T04:48:03.947Z,2920
2023-05-21T04:49:20.143Z,2984
2023-05-21T04:50:36.332Z,3028
2023-05-21T04:51:52.532Z,3064
2023-05-21T04:52:50.726Z,3104
2023-05-21T04:54:24.921Z,3148
2023-05-21T04:55:41.105Z,3128
2023-05-21T04:56:57.000Z,3192
2023-05-21T04:57:55.506Z,3208
2023-05-21T04:59:29.000Z,3244
2023-05-21T05:00:45.000Z,3296
2023-05-21T05:01:44.091Z,3348
2023-05-21T05:03:18.272Z,3368
2023-05-21T05:04:34.000Z,3376
2023-05-21T05:05:32.790Z,3408
2023-05-21T05:07:07.000Z,3368
2023-05-21T05:08:22.000Z,3360
2023-05-21T05:09:38.494Z,3328
2023-05-21T05:10:54.694Z,3332
2023-05-21T05:11:52.895Z,3352
2023-05-21T05:13:09.090Z,3408
2023-05-21T05:14:42.298Z,3500
2023-05-21T05:15:58.000Z,3588
2023-05-21T05:17:40.000Z,3468
2023-05-21T05:18:30.881Z,3472
2023-05-21T05:19:47.000Z,3488
2023-05-21T05:20:45.273Z,3484
2023-05-21T05:22:19.455Z,3508
2023-05-21T05:23:35.000Z,3508
2023-05-21T05:24:33.861Z,3496
2023-05-21T05:26:08.044Z,3516
2023-05-21T05:27:24.000Z,3600
2023-05-21T05:28:40.447Z,3512
2023-05-21T05:29:56.000Z,3472
2023-05-21T05:31:12.000Z,3596
2023-05-21T05:32:55.000Z,3668
2023-05-21T05:33:45.229Z,3696
2023-05-21T05:35:01.409Z,3720
2023-05-21T05:36:17.000Z,3632
2023-05-21T05:37:33.000Z,3564
2023-05-21T05:38:50.000Z,3688
2023-05-21T05:40:06.352Z,3796
2023-05-21T05:41:22.000Z,3864
2023-05-21T05:42:38.733Z,3812
2023-05-21T05:44:21.000Z,3700
2023-05-21T05:44:52.148Z,3684
2023-05-21T05:46:26.000Z,3772
2023-05-21T05:47:24.539Z,3824
2023-05-21T05:48:58.735Z,3908
2023-05-21T05:50:14.930Z,3932
2023-05-21T05:51:57.000Z,3912
2023-05-21T05:52:47.000Z,3816
2023-05-21T05:54:03.000Z,3768
2023-05-21T05:55:19.000Z,3756
2023-05-21T05:56:35.899Z,3828
2023-05-21T05:58:18.000Z,3984
2023-05-21T05:59:34.000Z,4044
2023-05-21T06:00:24.493Z,4056
2023-05-21T06:01:40.689Z,3988
2023-05-21T06:02:56.884Z,3940
2023-05-21T06:04:13.068Z,3888
2023-05-21T06:05:29.277Z,3832
2023-05-21T06:06:45.000Z,3840
2023-05-21T06:08:01.000Z,3828
2023-05-21T06:09:17.000Z,3808
2023-05-21T06:10:16.059Z,3804
2023-05-21T06:11:50.250Z,3808
2023-05-21T06:12:48.597Z,3808
2023-05-21T06:14:22.000Z,3836
2023-05-21T06:15:38.988Z,3840
2023-05-21T06:16:55.000Z,3756
2023-05-21T06:18:11.380Z,3676
2023-05-21T06:19:27.000Z,3652
2023-05-21T06:20:43.000Z,3636
2023-05-21T06:21:59.000Z,3636
2023-05-21T06:22:58.163Z,3636
2023-05-21T06:24:32.359Z,3632
2023-05-21T06:25:48.551Z,3640
2023-05-21T06:27:04.752Z,3648
2023-05-21T06:28:02.947Z,3664
2023-05-21T06:30:03.000Z,3704
2023-05-21T06:30:53.000Z,3732
2023-05-21T06:32:09.000Z,3768
2023-05-21T06:33:07.731Z,3816
2023-05-21T06:34:41.000Z,3848
2023-05-21T06:35:58.000Z,3848
2023-05-21T06:37:14.000Z,3860
2023-05-21T06:38:30.514Z,3860
2023-05-21T06:39:46.000Z,3884
2023-05-21T06:41:02.897Z,3908
2023-05-21T06:42:19.000Z,3932
2023-05-21T06:43:35.000Z,3952
2023-05-21T06:44:51.551Z,3960
2023-05-21T06:45:49.803Z,3972
2023-05-21T06:47:24.056Z,3992
2023-05-21T06:48:40.308Z,4004
2023-05-21T06:49:38.560Z,4032
2023-05-21T06:51:12.000Z,4068
2023-05-21T06:52:29.056Z,4104
2023-05-21T06:53:27.317Z,4140
2023-05-21T06:55:01.000Z,4168
2023-05-21T06:56:16.842Z,4172
2023-05-21T06:57:33.020Z,4208
2023-05-21T06:58:49.232Z,4196
2023-05-21T07:00:05.000Z,4244
2023-05-21T07:01:47.000Z,4300
2023-05-21T07:02:19.821Z,4388
2023-05-21T07:03:54.000Z,4504
2023-05-21T07:04:52.212Z,4648
2023-05-21T07:06:26.000Z,4820
2023-05-21T07:07:24.603Z,5096
2023-05-21T07:08:58.000Z,5116
2023-05-21T07:09:56.994Z,5328
2023-05-21T07:11:31.000Z,5340
2023-05-21T07:12:47.507Z,5404
2023-05-21T07:14:03.703Z,5464
2023-05-21T07:15:01.898Z,5980
2023-05-21T07:16:36.000Z,5732
2023-05-21T07:17:52.000Z,5828
2023-05-21T07:19:08.485Z,5888
2023-05-21T07:20:06.681Z,5932
2023-05-21T07:21:40.000Z,5996
2023-05-21T07:22:39.071Z,6196
2023-05-21T07:24:39.000Z,6240
2023-05-21T07:25:29.461Z,6244
2023-05-21T07:26:45.000Z,6260
2023-05-21T07:27:43.851Z,6272
2023-05-21T07:29:18.046Z,6496
2023-05-21T07:31:00.000Z,6324
2023-05-21T07:31:50.000Z,6372
2023-05-21T07:33:06.631Z,6376
2023-05-21T07:34:22.000Z,6392
2023-05-21T07:35:21.021Z,6404
2023-05-21T07:36:55.216Z,6416
2023-05-21T07:38:11.000Z,6460
2023-05-21T07:39:53.000Z,6476
2023-05-21T07:40:43.801Z,6524
2023-05-21T07:42:00.000Z,6752
2023-05-21T07:43:16.190Z,6572
2023-05-21T07:44:32.000Z,6544
2023-05-21T07:45:30.579Z,6504
2023-05-21T07:47:04.000Z,6564
2023-05-21T07:48:02.968Z,6548
2023-05-21T07:49:36.000Z,6572
2023-05-21T07:50:52.385Z,6544
2023-05-21T07:52:08.581Z,6616
2023-05-21T07:53:24.764Z,6460
2023-05-21T07:55:07.000Z,6520
2023-05-21T07:55:57.000Z,6540
2023-05-21T07:57:13.000Z,6512
2023-05-21T07:58:29.553Z,6484
2023-05-21T07:59:45.748Z,6448
2023-05-21T08:01:01.913Z,6472
2023-05-21T08:02:18.000Z,6452
2023-05-21T08:03:34.000Z,6472
2023-05-21T08:04:50.527Z,6448
2023-05-21T08:06:06.701Z,6484
2023-05-21T08:07:22.000Z,6540
2023-05-21T08:08:21.110Z,6604
2023-05-21T08:09:37.305Z,6620
2023-05-21T08:10:53.499Z,6644
2023-05-21T08:12:27.695Z,6620
2023-05-21T08:13:25.889Z,6640
2023-05-21T08:15:00.084Z,6636
2023-05-21T08:16:16.278Z,6636
2023-05-21T08:17:32.000Z,6624
2023-05-21T08:18:48.000Z,6608
2023-05-21T08:20:04.862Z,6580
2023-05-21T08:21:21.000Z,6544
2023-05-21T08:23:03.000Z,6488
2023-05-21T08:23:35.618Z,6408
2023-05-21T08:25:09.000Z,6372
2023-05-21T08:26:26.000Z,6388
2023-05-21T08:27:24.372Z,6420
2023-05-21T08:28:58.624Z,6436
2023-05-21T08:30:13.891Z,6500
2023-05-21T08:31:30.000Z,6492
2023-05-21T08:32:46.280Z,6436
2023-05-21T08:34:02.475Z,6732
2023-05-21T08:35:18.670Z,6596
2023-05-21T08:36:34.000Z,6680
2023-05-21T08:37:51.000Z,6928
2023-05-21T08:39:07.230Z,6800
2023-05-21T08:40:49.000Z,6840
2023-05-21T08:41:39.616Z,6912
2023-05-21T08:42:55.000Z,6904
2023-05-21T08:44:12.035Z,7164
2023-05-21T08:45:28.000Z,6904
2023-05-21T08:46:44.403Z,6828
2023-05-21T08:48:00.000Z,6932
2023-05-21T08:49:16.815Z,6916
2023-05-21T08:50:33.011Z,6860
2023-05-21T08:51:49.205Z,6824
2023-05-21T08:53:05.000Z,6672
2023-05-21T08:54:21.597Z,6632
2023-05-21T08:55:37.000Z,7180
2023-05-21T08:56:53.988Z,6592
2023-05-21T08:58:10.000Z,6484
2023-05-21T08:59:26.000Z,6420
2023-05-21T09:00:42.000Z,6396
2023-05-21T09:01:58.804Z,6392
2023-05-21T09:03:15.000Z,6284
2023-05-21T09:04:30.345Z,6276
2023-05-21T09:05:46.000Z,6184
2023-05-21T09:06:44.736Z,6260
2023-05-21T09:08:18.909Z,6340
2023-05-21T09:09:35.000Z,6284
2023-05-21T09:10:51.000Z,6496
2023-05-21T09:12:07.495Z,6420
2023-05-21T09:13:23.712Z,6360
2023-05-21T09:14:39.000Z,6312
2023-05-21T09:15:56.076Z,6416
2023-05-21T09:16:54.298Z,6328
2023-05-21T09:18:28.493Z,6364
2023-05-21T09:19:44.666Z,6416
2023-05-21T09:21:00.884Z,6352
2023-05-21T09:22:17.000Z,6364
2023-05-21T09:23:33.000Z,6088
2023-05-21T09:24:49.468Z,6192
2023-05-21T09:26:05.000Z,6188
2023-05-21T09:27:21.000Z,6376
2023-05-21T09:28:38.000Z,6672
2023-05-21T09:29:54.250Z,6752
2023-05-21T09:31:10.446Z,6916
2023-05-21T09:32:08.641Z,6960
2023-05-21T09:33:42.000Z,6984
2023-05-21T09:34:59.000Z,7120
2023-05-21T09:36:15.253Z,7200
2023-05-21T09:37:31.501Z,7296
2023-05-21T09:38:47.765Z,7072
2023-05-21T09:40:04.000Z,7064
2023-05-21T09:41:02.279Z,7140
2023-05-21T09:42:36.000Z,7344
2023-05-21T09:43:52.000Z,7220
2023-05-21T09:44:50.042Z,7196
2023-05-21T09:46:24.235Z,7168
2023-05-21T09:48:06.000Z,7012
2023-05-21T09:48:56.000Z,6876
2023-05-21T09:50:12.814Z,6836
2023-05-21T09:51:29.007Z,7032
2023-05-21T09:52:45.177Z,7216
2023-05-21T09:54:01.393Z,7692
2023-05-21T09:55:17.000Z,7204
2023-05-21T09:56:33.000Z,7160
2023-05-21T09:57:49.948Z,7244
2023-05-21T09:59:06.000Z,7568
2023-05-21T10:00:22.339Z,7368
2023-05-21T10:01:38.000Z,7176
2023-05-21T10:02:54.746Z,7428
2023-05-21T10:04:10.920Z,7368
2023-05-21T10:05:27.105Z,7408
2023-05-21T10:06:43.306Z,7428
2023-05-21T10:07:59.000Z,7476
2023-05-21T10:09:15.712Z,7592
2023-05-21T10:10:13.905Z,7672
2023-05-21T10:12:14.000Z,7828
2023-05-21T10:13:04.264Z,7856
2023-05-21T10:14:20.633Z,8112
2023-05-21T10:15:36.000Z,8276
2023-05-21T10:16:53.019Z,8092
2023-05-21T10:18:09.000Z,8128
2023-05-21T10:19:25.389Z,8192
2023-05-21T10:20:41.600Z,8452
2023-05-21T10:22:23.000Z,8228
2023-05-21T10:22:55.987Z,8480
2023-05-21T10:24:30.000Z,8416
2023-05-21T10:25:28.373Z,8532
2023-05-21T10:27:02.541Z,8416
2023-05-21T10:28:18.000Z,8200
2023-05-21T10:29:34.954Z,8348
2023-05-21T10:30:51.148Z,9256
2023-05-21T10:32:07.341Z,8784
2023-05-21T10:33:49.000Z,8852
2023-05-21T10:34:39.000Z,8856
2023-05-21T10:35:55.903Z,8944
2023-05-21T10:37:12.114Z,8936
2023-05-21T10:38:10.308Z,8884
2023-05-21T10:39:44.000Z,8900
2023-05-21T10:41:00.695Z,8516
2023-05-21T10:42:16.888Z,8404
2023-05-21T10:43:33.082Z,8352
2023-05-21T10:45:15.000Z,8468
2023-05-21T10:46:05.527Z,8972
2023-05-21T10:47:21.777Z,8196
2023-05-21T10:48:38.027Z,8004
2023-05-21T10:49:54.277Z,7948
2023-05-21T10:51:09.541Z,7592
2023-05-21T10:52:07.735Z,7436
2023-05-21T10:53:41.000Z,7356
2023-05-21T10:54:58.121Z,7440
2023-05-21T10:56:14.000Z,7544
2023-05-21T10:57:30.508Z,7416
2023-05-21T10:58:46.701Z,7404
2023-05-21T11:00:02.000Z,7252
2023-05-21T11:01:19.088Z,7356
2023-05-21T11:02:35.257Z,7156
2023-05-21T11:03:51.475Z,7060
2023-05-21T11:05:07.000Z,6976
2023-05-21T11:06:23.000Z,6796
2023-05-21T11:07:40.054Z,6740
2023-05-21T11:08:56.000Z,6576
2023-05-21T11:10:12.000Z,6480
2023-05-21T11:11:28.000Z,6964
2023-05-21T11:12:44.828Z,7060
2023-05-21T11:14:01.021Z,7116
2023-05-21T11:15:17.215Z,7280
2023-05-21T11:16:33.394Z,7756
2023-05-21T11:17:49.578Z,8004
2023-05-21T11:19:05.947Z,8368
2023-05-21T11:20:22.140Z,8364
2023-05-21T11:21:38.000Z,8392
2023-05-21T11:22:54.526Z,8484
2023-05-21T11:24:10.000Z,8440
2023-05-21T11:25:53.000Z,8372
2023-05-21T11:26:43.106Z,8328
2023-05-21T11:27:59.274Z,8392
2023-05-21T11:29:15.000Z,8704
2023-05-21T11:30:13.686Z,8512
2023-05-21T11:31:47.000Z,8880
2023-05-21T11:33:04.072Z,8344
2023-05-21T11:34:20.265Z,8416
2023-05-21T11:35:36.458Z,8716
2023-05-21T11:36:52.000Z,8432
2023-05-21T11:38:08.000Z,8708
2023-05-21T11:39:25.000Z,8848
2023-05-21T11:40:41.219Z,9032
2023-05-21T11:42:23.000Z,9552
2023-05-21T11:42:55.618Z,9788
2023-05-21T11:44:29.000Z,9684
2023-05-21T11:45:46.000Z,9624
2023-05-21T11:47:02.000Z,9428
2023-05-21T11:48:18.391Z,9520
2023-05-21T11:49:34.584Z,10012
2023-05-21T11:50:50.000Z,10168
2023-05-21T11:52:07.073Z,10340
2023-05-21T11:53:23.000Z,10436
2023-05-21T11:54:39.000Z,10508
2023-05-21T11:55:55.835Z,10448
2023-05-21T11:56:54.085Z,10656
2023-05-21T11:58:28.000Z,10172
2023-05-21T11:59:44.000Z,9464
2023-05-21T12:00:59.849Z,9404
2023-05-21T12:02:16.042Z,8648
2023-05-21T12:03:32.223Z,9240
2023-05-21T12:04:48.404Z,9084
2023-05-21T12:06:04.000Z,9500
2023-05-21T12:07:20.000Z,9100
2023-05-21T12:08:36.983Z,9168
2023-05-21T12:09:53.203Z,8824
2023-05-21T12:11:09.375Z,8628
2023-05-21T12:12:51.000Z,8372
2023-05-21T12:13:41.783Z,8220
2023-05-21T12:14:57.000Z,8264
2023-05-21T12:16:14.170Z,8248
2023-05-21T12:17:30.363Z,8424
2023-05-21T12:18:28.556Z,8408
2023-05-21T12:20:02.725Z,8272
2023-05-21T12:21:18.943Z,8128
2023-05-21T12:22:35.000Z,8236
2023-05-21T12:23:51.329Z,8008
2023-05-21T12:25:07.523Z,7096
2023-05-21T12:26:23.717Z,7580
2023-05-21T12:27:39.879Z,7696
2023-05-21T12:28:56.083Z,7704
2023-05-21T12:30:12.296Z,7756
2023-05-21T12:31:10.489Z,8012
2023-05-21T12:32:44.715Z,8308
2023-05-21T12:34:00.973Z,7968
2023-05-21T12:35:16.000Z,7868
2023-05-21T12:36:32.452Z,7976
2023-05-21T12:37:48.622Z,7784
2023-05-21T12:39:04.000Z,7496
2023-05-21T12:40:21.000Z,8112
2023-05-21T12:42:03.000Z,8464
2023-05-21T12:42:53.397Z,8712
2023-05-21T12:44:09.000Z,8380
2023-05-21T12:45:25.805Z,8112
2023-05-21T12:46:42.000Z,7688
2023-05-21T12:47:58.167Z,7336
2023-05-21T12:49:40.000Z,7204
2023-05-21T12:50:30.557Z,7552
2023-05-21T12:51:46.771Z,7824
2023-05-21T12:53:02.000Z,7592
2023-05-21T12:54:19.158Z,7612
2023-05-21T12:56:01.000Z,8608
2023-05-21T12:56:51.000Z,7836
2023-05-21T12:58:07.739Z,7420
2023-05-21T12:59:23.932Z,7320
2023-05-21T13:00:40.125Z,8440
2023-05-21T13:01:56.318Z,8364
2023-05-21T13:02:54.511Z,8144
2023-05-21T13:04:28.000Z,8212
2023-05-21T13:05:44.000Z,7988
2023-05-21T13:07:01.000Z,7868
2023-05-21T13:08:17.000Z,7648
2023-05-21T13:09:33.650Z,7436
2023-05-21T13:10:49.899Z,7584
2023-05-21T13:11:48.149Z,7460
2023-05-21T13:13:22.376Z,7568
2023-05-21T13:14:38.648Z,7764
2023-05-21T13:15:53.881Z,7520
2023-05-21T13:17:10.105Z,7552
2023-05-21T13:18:26.299Z,6696
2023-05-21T13:19:42.492Z,6824
2023-05-21T13:20:58.000Z,6684
2023-05-21T13:22:14.000Z,6404
2023-05-21T13:23:31.051Z,6892
2023-05-21T13:24:47.265Z,7080
2023-05-21T13:26:03.000Z,6724
2023-05-21T13:27:19.000Z,8340
2023-05-21T13:28:35.000Z,7268
2023-05-21T13:29:52.000Z,8084
2023-05-21T13:31:08.231Z,7280
2023-05-21T13:32:24.424Z,6896
2023-05-21T13:33:40.617Z,6948
2023-05-21T13:34:56.790Z,6984
2023-05-21T13:36:13.000Z,7020
2023-05-21T13:37:29.000Z,6932
2023-05-21T13:38:27.390Z,6892
2023-05-21T13:40:01.583Z,7100
2023-05-21T13:41:17.761Z,7172
2023-05-21T13:42:33.969Z,7324
2023-05-21T13:43:32.162Z,7408
2023-05-21T13:45:06.000Z,10352
2023-05-21T13:46:22.548Z,10612
2023-05-21T13:47:38.778Z,10276
2023-05-21T13:48:55.000Z,10564
2023-05-21T13:50:11.299Z,10128
2023-05-21T13:51:26.000Z,9896
2023-05-21T13:52:24.756Z,9240
2023-05-21T13:53:58.923Z,8380
2023-05-21T13:54:57.142Z,7800
2023-05-21T13:56:13.335Z,7604
2023-05-21T13:57:29.529Z,7444
2023-05-21T13:59:03.000Z,7280
2023-05-21T14:00:19.000Z,7268
2023-05-21T14:01:36.108Z,7200
2023-05-21T14:03:18.000Z,7128
2023-05-21T14:04:08.000Z,7172
2023-05-21T14:05:23.700Z,7712
2023-05-21T14:06:39.000Z,8116
2023-05-21T14:07:56.080Z,8428
2023-05-21T14:09:12.281Z,8736
2023-05-21T14:10:10.474Z,8864
2023-05-21T14:11:44.668Z,8760
2023-05-21T14:13:00.861Z,8740
2023-05-21T14:14:17.054Z,8628
2023-05-21T14:15:33.247Z,7740
2023-05-21T14:16:49.440Z,8448
2023-05-21T14:17:47.634Z,8604
2023-05-21T14:19:21.827Z,8360
2023-05-21T14:20:38.000Z,7536
2023-05-21T14:21:54.000Z,7668
2023-05-21T14:22:52.407Z,7716
2023-05-21T14:24:26.594Z,7704
2023-05-21T14:25:42.000Z,7732
2023-05-21T14:26:58.000Z,7608
2023-05-21T14:28:15.176Z,7848
2023-05-21T14:29:31.000Z,8008
2023-05-21T14:30:29.567Z,7936
2023-05-21T14:32:03.761Z,8004
2023-05-21T14:33:19.954Z,8208
2023-05-21T14:34:36.147Z,8572
2023-05-21T14:35:34.341Z,9136
2023-05-21T14:37:08.000Z,9360
2023-05-21T14:38:24.727Z,9572
2023-05-21T14:39:40.921Z,9128
2023-05-21T14:40:57.000Z,8660
2023-05-21T14:42:13.308Z,9328
2023-05-21T14:43:54.000Z,9140
2023-05-21T14:44:44.000Z,9080
2023-05-21T14:46:00.916Z,8756
2023-05-21T14:47:17.000Z,8288
2023-05-21T14:48:15.302Z,8908
2023-05-21T14:49:49.000Z,8884
2023-05-21T14:51:05.689Z,8964
2023-05-21T14:52:21.000Z,9204
2023-05-21T14:53:38.000Z,9528
2023-05-21T14:54:54.262Z,9644
2023-05-21T14:55:52.462Z,9208
2023-05-21T14:57:52.000Z,9404
2023-05-21T14:58:24.848Z,9288
2023-05-21T14:59:59.041Z,9124
2023-05-21T15:00:57.235Z,9072
2023-05-21T15:02:31.000Z,8932
2023-05-21T15:03:47.621Z,8436
2023-05-21T15:05:03.814Z,7764
2023-05-21T15:06:02.007Z,7796
2023-05-21T15:07:36.000Z,7880
2023-05-21T15:08:52.000Z,7500
2023-05-21T15:10:08.000Z,7720
2023-05-21T15:11:24.781Z,7980
2023-05-21T15:12:40.000Z,7692
2023-05-21T15:13:57.156Z,7260
2023-05-21T15:15:13.000Z,6964
2023-05-21T15:16:29.000Z,7096
2023-05-21T15:17:45.917Z,7272
2023-05-21T15:19:02.166Z,7180
2023-05-21T15:20:18.000Z,7104
2023-05-21T15:21:34.652Z,7012
2023-05-21T15:22:50.000Z,7188
2023-05-21T15:23:49.165Z,6980
2023-05-21T15:25:23.000Z,6764
2023-05-21T15:26:39.654Z,6672
2023-05-21T15:27:36.932Z,6664
2023-05-21T15:29:11.125Z,6572
2023-05-21T15:30:09.318Z,6580
2023-05-21T15:31:43.000Z,6556
2023-05-21T15:32:59.705Z,6476
2023-05-21T15:34:15.896Z,6360
2023-05-21T15:35:14.091Z,6268
2023-05-21T15:36:48.000Z,6180
2023-05-21T15:37:46.478Z,6348
2023-05-21T15:39:20.671Z,6336
2023-05-21T15:40:36.857Z,6240
2023-05-21T15:41:53.000Z,6332
2023-05-21T15:42:51.377Z,6504
2023-05-21T15:44:25.000Z,6672
2023-05-21T15:45:41.000Z,6916
2023-05-21T15:46:57.000Z,7072
2023-05-21T15:48:14.151Z,7428
2023-05-21T15:49:30.344Z,7504
2023-05-21T15:50:46.000Z,7388
2023-05-21T15:52:02.730Z,7052
2023-05-21T15:53:18.924Z,6988
2023-05-21T15:54:35.117Z,7020
2023-05-21T15:55:33.310Z,7164
2023-05-21T15:57:07.496Z,7368
2023-05-21T15:58:23.697Z,7704
2023-05-21T15:59:39.000Z,8236
2023-05-21T16:00:56.084Z,10056
2023-05-21T16:02:12.000Z,10712
2023-05-21T16:03:10.470Z,10968
2023-05-21T16:04:44.000Z,11620
2023-05-21T16:06:00.856Z,11360
2023-05-21T16:06:59.050Z,11668
2023-05-21T16:08:15.244Z,12328
2023-05-21T16:09:49.000Z,12224
2023-05-21T16:11:05.630Z,11864
2023-05-21T16:12:21.820Z,11244
2023-05-21T16:13:38.000Z,10412
2023-05-21T16:14:54.209Z,9920
2023-05-21T16:15:52.403Z,8840
2023-05-21T16:17:26.000Z,8052
2023-05-21T16:18:42.785Z,8104
2023-05-21T16:19:58.970Z,8216
2023-05-21T16:20:57.177Z,8220
2023-05-21T16:22:31.000Z,8140
2023-05-21T16:23:47.000Z,7876
2023-05-21T16:25:03.000Z,7172
2023-05-21T16:26:01.950Z,7076
2023-05-21T16:27:36.144Z,7028
2023-05-21T16:28:52.000Z,7000
2023-05-21T16:30:08.000Z,6840
2023-05-21T16:31:24.880Z,6760
2023-05-21T16:32:41.145Z,6640
2023-05-21T16:33:57.000Z,6648
2023-05-21T16:34:55.645Z,6464
2023-05-21T16:36:29.000Z,6336
2023-05-21T16:37:46.136Z,6276
2023-05-21T16:39:02.395Z,6168
2023-05-21T16:40:00.645Z,6076
2023-05-21T16:41:34.894Z,6024
2023-05-21T16:42:33.144Z,6232
2023-05-21T16:43:49.394Z,6264
2023-05-21T16:45:22.000Z,6344
2023-05-21T16:46:20.852Z,6084
2023-05-21T16:47:55.000Z,5736
2023-05-21T16:49:11.238Z,5428
2023-05-21T16:50:27.000Z,5192
2023-05-21T16:51:25.625Z,5116
2023-05-21T16:52:59.817Z,5076
2023-05-21T16:54:16.011Z,5112
2023-05-21T16:55:32.000Z,5372
2023-05-21T16:56:48.397Z,6076
2023-05-21T16:58:04.585Z,6732
2023-05-21T16:59:20.000Z,5908
2023-05-21T17:00:36.000Z,5200
2023-05-21T17:01:35.170Z,4752
2023-05-21T17:03:09.484Z,4544
2023-05-21T17:04:07.677Z,4576
2023-05-21T17:05:41.000Z,4768
2023-05-21T17:06:58.063Z,5036
2023-05-21T17:08:14.000Z,5240
2023-05-21T17:09:30.000Z,5620
2023-05-21T17:10:46.000Z,5820
2023-05-21T17:12:02.000Z,5868